Time;durP1;ratioP1;P1;durP2;ratioP2;P2;SDS_P1;SDS_P2;PMS_P1;PMS_P2;Temp;Humidity;BMP_temperature;BMP_pressure;BME280_temperature;BME280_humidity;BME280_pressure;Samples;Min_cycle;Max_cycle;Signal;HPM_P1;HPM_P2
2023/01/02 00:01:13;;;;;;;6.37;2.60;;;12.40;99.90;;;;;;5074837;28;20175;-85
2023/01/02 00:03:39;;;;;;;7.90;2.70;;;12.40;99.90;;;;;;5075002;28;20210;-86
2023/01/02 00:06:05;;;;;;;10.87;2.87;;;12.40;99.90;;;;;;5076464;28;20179;-85
2023/01/02 00:08:32;;;;;;;7.07;2.20;;;12.40;99.90;;;;;;5075012;28;20194;-86
2023/01/02 00:10:57;;;;;;;4.93;2.20;;;12.40;99.90;;;;;;5074440;28;20182;-86
2023/01/02 00:13:23;;;;;;;9.33;2.90;;;13.10;99.90;;;;;;5074310;28;20218;-86
2023/01/02 00:15:48;;;;;;;9.07;2.87;;;12.50;99.90;;;;;;5076993;28;20262;-85
2023/01/02 00:18:14;;;;;;;7.10;2.83;;;12.50;99.90;;;;;;5074818;28;20661;-86
2023/01/02 00:20:40;;;;;;;8.53;2.73;;;12.50;99.90;;;;;;5074981;28;20179;-85
2023/01/02 00:23:06;;;;;;;12.20;2.77;;;12.50;99.90;;;;;;5075686;28;20267;-85
2023/01/02 00:25:33;;;;;;;10.33;2.70;;;12.50;99.90;;;;;;5076348;28;20186;-87
2023/01/02 00:27:59;;;;;;;6.53;2.50;;;12.70;99.90;;;;;;5076204;28;20225;-86
2023/01/02 00:30:25;;;;;;;11.87;2.77;;;12.50;99.90;;;;;;5074584;28;20183;-85
2023/01/02 00:32:50;;;;;;;5.07;2.30;;;12.60;99.90;;;;;;5075375;28;20199;-85
2023/01/02 00:35:16;;;;;;;6.77;3.10;;;12.50;99.90;;;;;;5074951;28;20175;-86
2023/01/02 00:37:41;;;;;;;8.90;2.53;;;12.60;99.90;;;;;;5074053;28;20181;-86
2023/01/02 00:40:12;;;;;;;8.47;3.03;;;12.50;99.90;;;;;;5074323;28;20179;-86
2023/01/02 00:42:41;;;;;;;5.63;2.93;;;12.50;99.90;;;;;;5074112;28;20174;-87
2023/01/02 00:45:08;;;;;;;4.77;2.77;;;12.50;99.90;;;;;;5075459;28;20183;-86
2023/01/02 00:47:33;;;;;;;6.07;2.40;;;12.50;99.90;;;;;;5075194;28;20189;-86
2023/01/02 00:49:59;;;;;;;7.23;2.60;;;12.60;99.90;;;;;;5076211;28;20174;-86
2023/01/02 00:52:24;;;;;;;9.80;2.73;;;12.80;99.90;;;;;;5076537;28;20202;-87
2023/01/02 00:54:50;;;;;;;6.17;2.60;;;12.50;99.90;;;;;;5075786;28;20201;-86
2023/01/02 00:57:15;;;;;;;5.73;2.77;;;12.60;99.90;;;;;;5076311;28;20170;-86
2023/01/02 00:59:41;;;;;;;10.13;3.70;;;12.60;99.90;;;;;;5075281;28;20206;-86
2023/01/02 01:02:07;;;;;;;5.70;2.50;;;12.50;99.90;;;;;;5075950;28;20238;-85
2023/01/02 01:04:33;;;;;;;7.90;2.80;;;12.60;99.90;;;;;;5074909;28;20195;-85
2023/01/02 01:06:59;;;;;;;7.03;2.77;;;12.50;99.90;;;;;;5078358;28;20189;-84
2023/01/02 01:09:24;;;;;;;4.97;2.40;;;12.50;99.90;;;;;;5079925;28;20560;-84
2023/01/02 01:11:50;;;;;;;6.30;2.40;;;12.50;99.90;;;;;;5078854;28;20202;-85
2023/01/02 01:14:15;;;;;;;7.17;2.90;;;12.50;99.90;;;;;;5078890;28;20240;-85
2023/01/02 01:16:41;;;;;;;7.17;2.87;;;12.50;99.90;;;;;;5079851;28;20179;-85
2023/01/02 01:19:07;;;;;;;11.63;3.10;;;12.50;99.90;;;;;;5080024;28;20265;-85
2023/01/02 01:21:32;;;;;;;6.80;2.73;;;12.40;99.90;;;;;;5082533;28;20167;-84
2023/01/02 01:23:58;;;;;;;7.27;2.90;;;12.40;99.90;;;;;;5082161;28;20693;-84
2023/01/02 01:26:23;;;;;;;7.20;2.43;;;12.40;99.90;;;;;;5089126;28;20175;-85
2023/01/02 01:28:53;;;;;;;6.47;2.63;;;12.40;99.90;;;;;;5083122;28;20174;-84
2023/01/02 01:31:20;;;;;;;6.30;2.53;;;12.40;99.90;;;;;;5078772;28;20162;-85
2023/01/02 01:33:46;;;;;;;4.20;2.50;;;12.40;99.90;;;;;;5077370;28;20362;-84
2023/01/02 01:36:19;;;;;;;6.13;2.70;;;12.30;99.90;;;;;;5078209;28;20210;-85
2023/01/02 01:38:46;;;;;;;9.60;3.10;;;12.30;99.90;;;;;;5078229;28;20156;-86
2023/01/02 01:41:14;;;;;;;8.00;2.60;;;12.30;99.90;;;;;;5076455;28;20167;-84
2023/01/02 01:43:45;;;;;;;6.67;2.93;;;12.20;99.90;;;;;;5078123;28;20198;-85
2023/01/02 01:46:34;;;;;;;5.90;2.87;;;12.30;99.90;;;;;;5076242;28;20171;-85
2023/01/02 01:49:04;;;;;;;9.60;2.93;;;12.20;99.90;;;;;;5077723;28;20170;-84
2023/01/02 01:51:34;;;;;;;7.40;3.27;;;12.20;99.90;;;;;;5077139;28;20171;-85
2023/01/02 01:54:11;;;;;;;9.50;2.87;;;12.20;99.90;;;;;;5076042;28;20273;-85
2023/01/02 01:56:42;;;;;;;7.57;3.20;;;12.10;99.90;;;;;;5076083;28;20623;-86
2023/01/02 01:59:09;;;;;;;12.63;2.70;;;12.10;99.90;;;;;;5077332;28;20183;-85
2023/01/02 02:01:35;;;;;;;11.57;3.17;;;12.10;99.90;;;;;;5076897;28;20194;-85
2023/01/02 02:04:01;;;;;;;16.10;3.33;;;12.10;99.90;;;;;;5075579;28;20679;-85
2023/01/02 02:06:27;;;;;;;6.33;2.80;;;12.10;99.90;;;;;;5077208;28;20193;-86
2023/01/02 02:09:19;;;;;;;8.80;2.90;;;12.10;99.90;;;;;;5076384;28;20610;-84
2023/01/02 02:11:45;;;;;;;7.90;3.03;;;12.00;99.90;;;;;;5075535;28;20234;-84
2023/01/02 02:14:11;;;;;;;7.63;3.10;;;12.00;99.90;;;;;;5076476;28;20205;-85
2023/01/02 02:16:53;;;;;;;6.70;2.60;;;12.00;99.90;;;;;;5078110;28;20250;-86
2023/01/02 02:19:48;;;;;;;7.37;3.10;;;12.00;99.90;;;;;;5076102;28;20174;-85
2023/01/02 02:22:16;;;;;;;4.60;2.70;;;12.00;99.90;;;;;;5077832;28;20191;-85
2023/01/02 02:25:18;;;;;;;8.37;3.10;;;12.00;99.90;;;;;;5078784;28;20636;-85
2023/01/02 02:28:11;;;;;;;9.03;2.77;;;12.00;99.90;;;;;;5076488;28;20229;-85
2023/01/02 02:31:04;;;;;;;4.73;2.50;;;12.00;99.90;;;;;;5075867;28;20175;-85
2023/01/02 02:34:08;;;;;;;9.60;2.90;;;12.00;99.90;;;;;;5077564;28;20289;-85
2023/01/02 02:37:11;;;;;;;7.77;2.67;;;12.10;99.90;;;;;;5066563;28;20189;-84
2023/01/02 02:40:01;;;;;;;10.47;3.60;;;12.00;99.90;;;;;;5079777;28;20170;-84
2023/01/02 02:43:01;;;;;;;9.53;2.87;;;12.00;99.90;;;;;;5083075;28;20254;-84
2023/01/02 02:45:37;;;;;;;10.77;3.37;;;12.00;99.90;;;;;;5090415;28;20178;-84
2023/01/02 02:48:38;;;;;;;7.33;3.60;;;12.10;99.90;;;;;;5098044;28;20186;-84
2023/01/02 02:51:08;;;;;;;7.80;3.17;;;12.00;99.90;;;;;;5020190;28;20194;-84
2023/01/02 02:53:54;;;;;;;9.57;3.37;;;12.00;99.90;;;;;;5081351;28;20214;-84
2023/01/02 02:56:22;;;;;;;7.47;2.60;;;12.00;99.90;;;;;;5079557;28;20171;-84
2023/01/02 02:58:48;;;;;;;7.03;3.03;;;12.00;99.90;;;;;;5080445;28;20178;-85
2023/01/02 03:01:16;;;;;;;5.77;2.70;;;12.00;99.90;;;;;;5078568;28;20175;-85
2023/01/02 03:03:42;;;;;;;7.73;2.83;;;11.90;99.90;;;;;;5080190;28;20680;-84
2023/01/02 03:06:18;;;;;;;9.43;2.90;;;12.00;99.90;;;;;;5078382;28;20183;-85
2023/01/02 03:09:12;;;;;;;9.03;3.40;;;12.00;99.90;;;;;;5078428;28;20177;-85
2023/01/02 03:11:47;;;;;;;10.13;2.50;;;12.00;99.90;;;;;;5078174;28;20656;-84
2023/01/02 03:14:32;;;;;;;5.70;2.57;;;12.00;99.90;;;;;;5078270;28;20198;-85
2023/01/02 03:17:04;;;;;;;5.00;2.47;;;11.90;99.90;;;;;;5078409;28;20167;-85
2023/01/02 03:19:37;;;;;;;8.07;3.00;;;11.90;99.90;;;;;;5082210;28;20175;-85
2023/01/02 03:22:19;;;;;;;7.20;2.73;;;11.90;99.90;;;;;;5078978;28;20228;-84
2023/01/02 03:24:49;;;;;;;6.33;3.00;;;12.00;99.90;;;;;;5080890;28;20202;-86
2023/01/02 03:27:21;;;;;;;6.87;2.53;;;12.00;99.90;;;;;;5079600;28;20212;-85
2023/01/02 03:29:51;;;;;;;8.73;2.60;;;12.00;99.90;;;;;;5079618;28;20182;-85
2023/01/02 03:32:27;;;;;;;10.13;3.60;;;12.00;99.90;;;;;;5081212;28;20183;-84
2023/01/02 03:34:53;;;;;;;8.53;2.80;;;12.00;99.90;;;;;;5080384;28;20258;-84
2023/01/02 03:37:32;;;;;;;7.07;2.90;;;11.90;99.90;;;;;;5082419;28;20206;-85
2023/01/02 03:40:03;;;;;;;5.37;3.17;;;12.00;99.90;;;;;;5084411;28;20167;-84
2023/01/02 03:42:34;;;;;;;4.70;2.20;;;11.90;99.90;;;;;;5089950;28;20179;-85
2023/01/02 03:45:04;;;;;;;6.17;2.70;;;11.90;99.90;;;;;;5088050;28;20233;-84
2023/01/02 03:47:42;;;;;;;10.47;3.27;;;11.90;99.90;;;;;;5080591;28;20235;-85
2023/01/02 03:50:14;;;;;;;6.50;2.50;;;11.90;99.90;;;;;;5080870;28;20162;-84
2023/01/02 03:52:39;;;;;;;9.47;2.73;;;11.90;99.90;;;;;;5080424;28;20187;-85
2023/01/02 03:55:06;;;;;;;5.50;3.27;;;11.90;99.90;;;;;;5080389;28;20175;-84
2023/01/02 03:57:52;;;;;;;8.03;3.53;;;11.90;99.90;;;;;;5080848;28;20182;-84
2023/01/02 04:00:19;;;;;;;6.70;2.50;;;11.90;99.90;;;;;;5080648;28;20166;-85
2023/01/02 04:02:56;;;;;;;6.70;2.87;;;11.90;99.90;;;;;;5081661;28;20179;-85
2023/01/02 04:05:28;;;;;;;8.57;3.60;;;11.90;99.90;;;;;;5080683;28;20165;-84
2023/01/02 04:08:07;;;;;;;5.40;2.70;;;11.90;99.90;;;;;;5079105;28;20551;-84
2023/01/02 04:10:35;;;;;;;8.87;2.90;;;11.80;99.90;;;;;;5080315;28;20237;-84
2023/01/02 04:13:10;;;;;;;8.73;2.93;;;11.80;99.90;;;;;;5078789;28;20264;-85
2023/01/02 04:15:37;;;;;;;7.87;3.47;;;11.80;99.90;;;;;;5078586;28;20170;-84
2023/01/02 04:18:09;;;;;;;7.30;3.00;;;11.80;99.90;;;;;;5079985;28;20647;-84
2023/01/02 04:20:46;;;;;;;6.10;2.63;;;11.80;99.90;;;;;;5079231;28;20171;-85
2023/01/02 04:23:15;;;;;;;6.20;2.70;;;11.80;99.90;;;;;;5079350;28;20702;-85
2023/01/02 04:25:51;;;;;;;7.33;2.97;;;11.80;99.90;;;;;;5077746;28;20187;-85
2023/01/02 04:28:24;;;;;;;8.97;3.33;;;11.80;99.90;;;;;;5086619;28;20167;-85
2023/01/02 04:31:06;;;;;;;7.63;2.93;;;11.70;99.90;;;;;;5094405;28;20171;-84
2023/01/02 04:33:36;;;;;;;6.20;2.70;;;11.80;99.90;;;;;;5084579;28;20564;-85
2023/01/02 04:36:09;;;;;;;8.10;3.63;;;11.80;99.90;;;;;;5080591;28;20183;-86
2023/01/02 04:38:35;;;;;;;7.00;3.00;;;11.80;99.90;;;;;;5090227;28;20199;-86
2023/01/02 04:41:03;;;;;;;7.97;2.60;;;11.80;99.90;;;;;;5095154;28;20187;-84
2023/01/02 04:43:28;;;;;;;8.27;3.13;;;11.80;99.90;;;;;;5086837;28;20207;-85
2023/01/02 04:45:54;;;;;;;10.23;3.00;;;11.80;99.90;;;;;;5081770;28;20229;-86
2023/01/02 04:48:19;;;;;;;7.03;2.57;;;11.80;99.90;;;;;;5081605;28;20191;-84
2023/01/02 04:50:45;;;;;;;7.37;2.87;;;11.80;99.90;;;;;;5081926;28;20258;-85
2023/01/02 04:53:11;;;;;;;8.50;2.87;;;11.80;99.90;;;;;;5077987;28;20595;-85
2023/01/02 04:55:37;;;;;;;8.27;2.60;;;11.80;99.90;;;;;;5078400;28;20187;-85
2023/01/02 04:58:03;;;;;;;7.50;3.43;;;11.80;99.90;;;;;;5078476;28;20176;-84
2023/01/02 05:00:29;;;;;;;6.80;3.30;;;11.80;99.90;;;;;;5079031;28;20197;-84
2023/01/02 05:02:54;;;;;;;8.13;2.43;;;11.80;99.90;;;;;;5078281;28;20254;-84
2023/01/02 05:05:20;;;;;;;8.27;2.70;;;11.80;99.90;;;;;;5079564;28;20178;-84
2023/01/02 05:07:45;;;;;;;9.77;2.80;;;11.80;99.90;;;;;;5078355;28;20663;-86
2023/01/02 05:10:11;;;;;;;8.37;2.50;;;11.80;99.90;;;;;;5078851;28;20171;-84
2023/01/02 05:12:38;;;;;;;5.73;2.00;;;11.80;99.90;;;;;;5079410;28;20220;-85
2023/01/02 05:15:05;;;;;;;10.27;2.70;;;11.90;99.90;;;;;;5079989;28;20543;-84
2023/01/02 05:17:38;;;;;;;5.93;2.60;;;11.90;99.90;;;;;;5078729;28;20688;-85
2023/01/02 05:20:05;;;;;;;8.20;2.43;;;11.90;99.90;;;;;;5078798;28;20181;-84
2023/01/02 05:25:16;;;;;;;7.83;2.50;;;12.00;99.90;;;;;;5080951;28;20178;-83
2023/01/02 05:27:41;;;;;;;7.27;2.43;;;12.00;99.90;;;;;;5081382;28;20261;-85
2023/01/02 05:30:07;;;;;;;7.23;2.73;;;12.00;99.90;;;;;;5081460;28;20171;-84
2023/01/02 05:32:33;;;;;;;10.67;2.40;;;12.00;99.90;;;;;;5080142;28;20251;-84
2023/01/02 05:34:59;;;;;;;7.00;2.50;;;12.00;99.90;;;;;;5079218;28;20286;-84
2023/01/02 05:37:24;;;;;;;7.00;2.20;;;12.10;99.90;;;;;;5080755;28;20174;-84
2023/01/02 05:39:50;;;;;;;5.83;2.33;;;12.10;99.90;;;;;;5080924;28;20177;-84
2023/01/02 05:42:15;;;;;;;4.60;1.63;;;12.10;99.90;;;;;;5081065;28;20183;-84
2023/01/02 05:44:41;;;;;;;6.00;2.30;;;12.20;99.90;;;;;;5080982;28;20198;-85
2023/01/02 05:47:06;;;;;;;5.13;2.30;;;12.20;99.90;;;;;;5080810;28;20179;-84
2023/01/02 05:49:32;;;;;;;8.80;2.30;;;12.20;99.90;;;;;;5083321;28;20281;-84
2023/01/02 05:51:57;;;;;;;3.47;2.30;;;12.20;99.90;;;;;;5082125;28;20285;-84
2023/01/02 05:54:23;;;;;;;7.00;2.23;;;12.30;99.90;;;;;;5080670;28;20195;-84
2023/01/02 05:56:48;;;;;;;7.27;2.53;;;12.30;99.90;;;;;;5080914;28;20179;-84
2023/01/02 05:59:14;;;;;;;9.17;2.00;;;12.30;99.90;;;;;;5080394;28;20190;-84
2023/01/02 06:01:40;;;;;;;5.87;2.07;;;12.40;99.90;;;;;;5082317;28;20174;-84
2023/01/02 06:04:06;;;;;;;6.57;1.87;;;12.40;99.90;;;;;;5081930;28;20198;-84
2023/01/02 06:06:35;;;;;;;9.13;2.30;;;12.40;99.90;;;;;;5080733;28;20194;-84
2023/01/02 06:09:01;;;;;;;5.43;1.80;;;12.30;99.90;;;;;;5081810;28;20220;-84
2023/01/02 06:11:27;;;;;;;8.03;2.23;;;12.40;99.90;;;;;;5081193;28;20190;-84
2023/01/02 06:13:53;;;;;;;5.70;2.13;;;12.30;99.90;;;;;;5084596;28;20698;-84
2023/01/02 06:16:19;;;;;;;4.90;1.87;;;12.30;99.90;;;;;;5085512;28;20204;-84
2023/01/02 06:18:45;;;;;;;6.03;1.90;;;12.30;99.90;;;;;;5085515;28;20170;-84
2023/01/02 06:21:13;;;;;;;3.03;1.43;;;12.30;99.90;;;;;;5086680;28;20231;-83
2023/01/02 06:23:40;;;;;;;3.33;1.70;;;12.30;99.90;;;;;;5085005;28;20224;-84
2023/01/02 06:26:16;;;;;;;3.37;1.97;;;12.30;99.90;;;;;;5085406;28;20175;-84
2023/01/02 06:28:43;;;;;;;6.60;2.47;;;12.30;99.90;;;;;;5087149;28;20167;-84
2023/01/02 06:31:15;;;;;;;6.17;2.03;;;12.20;99.90;;;;;;5086146;28;20175;-83
2023/01/02 06:33:41;;;;;;;6.73;2.10;;;12.30;99.90;;;;;;5086017;28;20285;-84
2023/01/02 06:36:17;;;;;;;7.17;2.23;;;12.30;99.90;;;;;;5099026;28;20190;-84
2023/01/02 06:38:44;;;;;;;4.00;1.90;;;12.20;99.90;;;;;;5087810;28;20183;-87
2023/01/02 06:41:10;;;;;;;8.03;1.77;;;12.20;99.90;;;;;;5074480;28;20186;-86
2023/01/02 06:43:44;;;;;;;7.83;1.90;;;12.20;99.90;;;;;;5080825;28;20194;-85
2023/01/02 06:46:10;;;;;;;5.17;1.70;;;12.20;99.90;;;;;;5083266;28;20174;-85
2023/01/02 06:48:36;;;;;;;7.00;1.97;;;12.20;99.90;;;;;;5084235;28;20167;-84
2023/01/02 06:51:06;;;;;;;9.87;1.97;;;12.20;99.90;;;;;;5085175;28;20663;-82
2023/01/02 06:53:34;;;;;;;4.90;1.90;;;12.10;99.90;;;;;;5082726;28;20199;-83
2023/01/02 06:55:59;;;;;;;2.27;1.40;;;12.20;99.90;;;;;;5086651;28;20167;-82
2023/01/02 06:58:28;;;;;;;5.83;1.70;;;12.20;99.90;;;;;;5084671;28;20206;-83
2023/01/02 07:00:54;;;;;;;5.20;2.33;;;12.20;99.90;;;;;;5084946;28;20582;-82
2023/01/02 07:03:20;;;;;;;5.57;2.10;;;12.10;99.90;;;;;;5086296;28;20240;-82
2023/01/02 07:05:45;;;;;;;8.33;1.83;;;12.10;99.90;;;;;;5084797;28;20174;-82
2023/01/02 07:08:12;;;;;;;6.40;1.60;;;12.10;99.90;;;;;;5083520;28;20201;-82
2023/01/02 07:10:37;;;;;;;7.00;2.13;;;12.10;99.90;;;;;;5086139;28;20202;-83
2023/01/02 07:13:03;;;;;;;5.13;1.90;;;12.10;99.90;;;;;;5086737;28;20206;-82
2023/01/02 07:15:29;;;;;;;4.47;1.90;;;12.10;99.90;;;;;;5086827;28;20183;-82
2023/01/02 07:17:54;;;;;;;4.87;1.50;;;12.10;99.90;;;;;;5085144;28;20182;-82
2023/01/02 07:20:20;;;;;;;4.33;1.80;;;12.10;99.90;;;;;;5084931;28;20175;-82
2023/01/02 07:22:53;;;;;;;5.40;2.20;;;12.10;99.90;;;;;;5086659;28;20197;-82
2023/01/02 07:25:20;;;;;;;4.53;1.80;;;12.10;99.90;;;;;;5086244;28;20163;-82
2023/01/02 07:27:45;;;;;;;8.20;2.37;;;12.10;99.90;;;;;;5087739;28;20213;-83
2023/01/02 07:30:11;;;;;;;10.80;2.20;;;12.10;99.90;;;;;;5094697;28;20171;-83
2023/01/02 07:32:37;;;;;;;4.03;1.90;;;12.10;99.90;;;;;;5100486;28;20197;-84
2023/01/02 07:35:03;;;;;;;3.67;1.70;;;12.10;99.90;;;;;;5096613;28;20287;-82
2023/01/02 07:37:28;;;;;;;3.77;1.80;;;12.10;99.90;;;;;;5083334;28;20242;-83
2023/01/02 07:39:54;;;;;;;4.33;1.70;;;12.10;99.90;;;;;;5083393;28;20197;-82
2023/01/02 07:42:19;;;;;;;3.07;1.60;;;12.10;99.90;;;;;;5084772;28;20175;-83
2023/01/02 07:44:45;;;;;;;8.73;1.80;;;12.10;99.90;;;;;;5085465;28;20195;-82
2023/01/02 07:47:11;;;;;;;2.53;1.60;;;12.10;99.90;;;;;;5084465;28;20183;-82
2023/01/02 07:49:36;;;;;;;4.37;1.57;;;12.10;99.90;;;;;;5085757;28;20601;-82
2023/01/02 07:52:02;;;;;;;5.50;2.13;;;12.00;99.90;;;;;;5085219;28;20199;-82
2023/01/02 07:54:27;;;;;;;6.67;1.93;;;12.00;99.90;;;;;;5083951;28;20206;-82
2023/01/02 07:56:53;;;;;;;4.17;1.87;;;12.00;99.90;;;;;;5083959;28;20218;-82
2023/01/02 07:59:19;;;;;;;5.07;1.67;;;12.00;99.90;;;;;;5084093;28;20231;-82
2023/01/02 08:01:44;;;;;;;5.63;1.80;;;12.00;99.90;;;;;;5085739;28;20179;-82
2023/01/02 08:04:10;;;;;;;6.40;1.70;;;12.00;99.90;;;;;;5084174;28;20195;-82
2023/01/02 08:06:38;;;;;;;5.60;1.70;;;12.00;99.90;;;;;;5084133;28;20235;-83
2023/01/02 08:09:03;;;;;;;5.40;1.97;;;11.90;99.90;;;;;;5085573;28;20175;-82
2023/01/02 08:11:29;;;;;;;3.00;1.87;;;12.00;99.90;;;;;;5085829;28;20171;-83
2023/01/02 08:13:56;;;;;;;4.67;1.70;;;12.00;99.90;;;;;;5087134;28;20625;-84
2023/01/02 08:16:22;;;;;;;1.93;1.43;;;11.90;99.90;;;;;;5087609;28;20226;-82
2023/01/02 08:18:51;;;;;;;4.87;1.83;;;11.90;99.90;;;;;;5087093;28;20229;-82
2023/01/02 08:21:16;;;;;;;5.33;1.97;;;11.90;99.90;;;;;;5086087;28;20202;-83
2023/01/02 08:23:42;;;;;;;9.07;2.20;;;11.90;99.90;;;;;;5085423;28;20210;-83
2023/01/02 08:26:09;;;;;;;4.80;1.80;;;11.90;99.90;;;;;;5083681;28;20170;-83
2023/01/02 08:28:36;;;;;;;4.97;1.70;;;11.90;99.90;;;;;;5085297;28;20178;-84
2023/01/02 08:31:08;;;;;;;2.77;1.50;;;11.90;99.90;;;;;;5084146;28;20214;-83
2023/01/02 08:33:33;;;;;;;5.17;1.97;;;11.90;99.90;;;;;;5083141;28;20217;-82
2023/01/02 08:35:59;;;;;;;5.23;2.20;;;11.90;99.90;;;;;;5081831;28;20250;-82
2023/01/02 08:38:24;;;;;;;4.57;1.93;;;11.80;99.90;;;;;;5081890;28;20600;-82
2023/01/02 08:40:50;;;;;;;8.60;2.47;;;11.90;99.90;;;;;;5083451;28;20254;-82
2023/01/02 08:43:15;;;;;;;6.43;2.23;;;11.90;99.90;;;;;;5083459;28;20206;-82
2023/01/02 08:45:41;;;;;;;6.67;1.40;;;11.90;99.90;;;;;;5081871;28;20230;-82
2023/01/02 08:48:06;;;;;;;2.70;1.30;;;11.70;99.90;;;;;;5081749;28;20657;-82
2023/01/02 08:50:32;;;;;;;2.90;0.97;;;11.60;99.90;;;;;;5083360;28;20668;-81
2023/01/02 08:52:58;;;;;;;4.80;1.60;;;11.60;99.90;;;;;;5082278;28;20186;-81
2023/01/02 08:55:23;;;;;;;4.53;1.50;;;11.70;99.90;;;;;;5082356;28;20175;-81
2023/01/02 08:57:49;;;;;;;3.40;1.30;;;11.60;99.90;;;;;;5083136;28;20581;-81
2023/01/02 09:00:14;;;;;;;2.57;1.30;;;11.50;99.90;;;;;;5081776;28;20242;-82
2023/01/02 09:02:41;;;;;;;3.93;1.10;;;11.50;99.90;;;;;;5091822;28;20233;-82
2023/01/02 09:05:07;;;;;;;1.77;1.10;;;11.40;99.90;;;;;;5090774;28;20183;-81
2023/01/02 09:07:32;;;;;;;1.33;1.00;;;11.40;99.90;;;;;;5091393;28;20200;-81
2023/01/02 09:09:58;;;;;;;2.70;1.13;;;11.30;99.90;;;;;;5091145;28;20179;-81
2023/01/02 09:12:24;;;;;;;1.70;1.20;;;11.30;99.90;;;;;;5091024;28;20625;-81
2023/01/02 09:14:49;;;;;;;2.50;0.97;;;11.20;99.90;;;;;;5091181;28;20202;-81
2023/01/02 09:17:15;;;;;;;1.20;1.07;;;11.20;99.90;;;;;;5092764;28;20179;-81
2023/01/02 09:19:41;;;;;;;1.30;1.00;;;11.10;99.90;;;;;;5093707;28;20179;-81
2023/01/02 09:22:07;;;;;;;1.77;0.80;;;11.00;99.90;;;;;;5096109;28;20175;-81
2023/01/02 09:24:33;;;;;;;2.90;1.10;;;11.00;99.90;;;;;;5098049;28;20214;-81
2023/01/02 09:26:58;;;;;;;1.53;1.00;;;11.00;99.90;;;;;;5094671;28;20201;-81
2023/01/02 09:29:24;;;;;;;1.63;1.07;;;11.00;99.90;;;;;;5090983;28;20194;-81
2023/01/02 09:31:49;;;;;;;1.53;1.07;;;11.00;99.90;;;;;;5090429;28;20163;-80
2023/01/02 09:34:15;;;;;;;3.63;1.33;;;10.90;99.90;;;;;;5090149;28;20187;-80
2023/01/02 09:36:41;;;;;;;1.87;1.30;;;10.90;99.90;;;;;;5089818;28;20214;-82
2023/01/02 09:39:06;;;;;;;1.70;1.60;;;10.80;99.90;;;;;;5090928;28;20202;-81
2023/01/02 09:41:35;;;;;;;1.83;1.70;;;10.80;99.90;;;;;;5090201;28;20178;-81
2023/01/02 09:44:13;;;;;;;3.13;1.80;;;10.80;99.90;;;;;;5090244;28;20624;-82
2023/01/02 09:46:42;;;;;;;2.23;1.90;;;10.80;99.90;;;;;;5087709;28;20202;-83
2023/01/02 09:49:14;;;;;;;2.77;2.30;;;11.10;99.90;;;;;;5092551;28;20173;-81
2023/01/02 09:51:40;;;;;;;2.50;2.30;;;10.70;99.90;;;;;;5090509;28;20232;-80
2023/01/02 09:54:16;;;;;;;4.47;2.70;;;10.70;99.90;;;;;;5089414;28;20579;-81
2023/01/02 09:56:45;;;;;;;3.00;2.73;;;10.70;99.90;;;;;;5085937;28;20257;-81
2023/01/02 09:59:32;;;;;;;2.73;2.53;;;10.70;99.90;;;;;;5084879;28;20183;-82
2023/01/02 10:02:10;;;;;;;2.97;2.60;;;10.70;99.90;;;;;;5082404;28;20177;-82
2023/01/02 10:04:59;;;;;;;2.53;2.33;;;10.60;99.90;;;;;;5081790;28;20606;-82
2023/01/02 10:07:30;;;;;;;3.03;2.70;;;10.60;99.90;;;;;;5083695;28;20160;-82
2023/01/02 10:10:11;;;;;;;2.87;2.63;;;10.60;99.90;;;;;;5083991;28;20163;-82
2023/01/02 10:12:59;;;;;;;3.23;2.93;;;10.70;99.90;;;;;;5082902;28;20202;-81
2023/01/02 10:15:27;;;;;;;4.00;2.80;;;10.70;99.90;;;;;;5088180;28;20164;-80
2023/01/02 10:17:59;;;;;;;3.07;2.80;;;10.60;99.90;;;;;;5085880;28;20175;-80
2023/01/02 10:20:41;;;;;;;3.73;3.23;;;10.70;99.90;;;;;;5085432;28;20170;-80
2023/01/02 10:23:14;;;;;;;4.97;3.37;;;10.60;99.90;;;;;;5091736;28;20203;-80
2023/01/02 10:25:46;;;;;;;3.37;2.97;;;10.70;99.90;;;;;;5092014;28;20155;-80
2023/01/02 10:28:23;;;;;;;6.27;4.30;;;10.70;99.90;;;;;;5094634;28;20163;-80
2023/01/02 10:31:03;;;;;;;5.20;4.43;;;10.70;99.90;;;;;;5095048;28;20187;-81
2023/01/02 10:33:41;;;;;;;5.37;4.87;;;10.70;99.90;;;;;;5093229;28;20571;-81
2023/01/02 10:36:16;;;;;;;5.63;5.10;;;10.70;99.90;;;;;;5091590;28;20238;-82
2023/01/02 10:38:42;;;;;;;9.47;5.40;;;10.70;99.90;;;;;;5087336;28;20199;-81
2023/01/02 10:41:08;;;;;;;5.80;5.20;;;10.80;99.90;;;;;;5083630;28;20175;-83
2023/01/02 10:43:35;;;;;;;7.57;6.00;;;10.80;99.90;;;;;;5081442;28;20191;-82
2023/01/02 10:46:02;;;;;;;7.07;5.50;;;10.70;99.90;;;;;;5081009;28;20175;-80
2023/01/02 10:48:32;;;;;;;6.40;5.80;;;10.80;99.90;;;;;;5078274;28;20177;-79
2023/01/02 10:51:02;;;;;;;6.47;5.87;;;10.80;99.90;;;;;;5080477;28;20230;-79
2023/01/02 10:53:32;;;;;;;5.90;5.40;;;10.80;99.90;;;;;;5082587;28;20225;-80
2023/01/02 10:56:17;;;;;;;8.53;5.47;;;10.80;99.90;;;;;;5081409;28;20175;-80
2023/01/02 10:58:48;;;;;;;6.93;5.70;;;10.80;99.90;;;;;;5081998;28;20175;-80
2023/01/02 11:01:19;;;;;;;7.20;5.50;;;10.80;99.90;;;;;;5090380;28;20198;-80
2023/01/02 11:04:05;;;;;;;5.33;4.77;;;10.90;99.90;;;;;;5096044;28;20203;-78
2023/01/02 11:06:31;;;;;;;6.43;5.83;;;10.90;99.90;;;;;;5090463;28;20183;-79
2023/01/02 11:09:18;;;;;;;8.60;6.37;;;10.90;99.90;;;;;;5085193;28;20203;-80
2023/01/02 11:11:52;;;;;;;7.00;5.80;;;10.90;99.90;;;;;;5084738;28;20202;-80
2023/01/02 11:14:22;;;;;;;8.17;7.20;;;10.90;99.90;;;;;;5087212;28;20213;-80
2023/01/02 11:16:48;;;;;;;7.63;6.53;;;10.90;99.90;;;;;;5085190;28;20181;-80
2023/01/02 11:19:21;;;;;;;8.83;6.63;;;10.80;99.90;;;;;;5083234;28;20656;-80
2023/01/02 11:21:48;;;;;;;7.50;6.60;;;10.90;99.90;;;;;;5084159;28;20223;-80
2023/01/02 11:24:24;;;;;;;8.63;6.87;;;10.90;99.90;;;;;;5084002;28;20206;-82
2023/01/02 11:26:51;;;;;;;7.90;6.13;;;10.80;99.90;;;;;;5082701;28;20174;-80
2023/01/02 11:29:31;;;;;;;6.33;5.47;;;10.90;99.90;;;;;;5084034;28;20212;-80
2023/01/02 11:32:00;;;;;;;6.53;5.53;;;10.90;99.90;;;;;;5082649;28;20265;-80
2023/01/02 11:34:37;;;;;;;7.57;5.20;;;10.90;99.90;;;;;;5085350;28;20187;-80
2023/01/02 11:37:23;;;;;;;5.93;5.33;;;10.90;99.90;;;;;;5084563;28;20167;-80
2023/01/02 11:40:25;;;;;;;6.37;4.73;;;10.90;99.90;;;;;;5083792;28;20187;-80
2023/01/02 11:45:38;;;;;;;5.73;4.50;;;10.90;99.90;;;;;;5081721;28;20170;-80
2023/01/02 11:48:10;;;;;;;6.47;4.53;;;10.90;99.90;;;;;;5080529;28;20206;-80
2023/01/02 11:50:37;;;;;;;5.00;4.50;;;10.90;99.90;;;;;;5081711;28;20297;-79
2023/01/02 11:53:08;;;;;;;5.50;4.33;;;10.90;99.90;;;;;;5079488;28;20221;-79
2023/01/02 11:55:56;;;;;;;4.67;4.17;;;11.00;99.90;;;;;;5079593;28;20167;-79
2023/01/02 11:58:44;;;;;;;5.33;4.60;;;11.00;99.90;;;;;;5079667;28;20232;-80
2023/01/02 12:01:28;;;;;;;5.43;4.50;;;11.00;99.90;;;;;;5078849;28;20571;-80
2023/01/02 12:03:54;;;;;;;6.27;4.77;;;11.00;99.90;;;;;;5078980;28;20205;-79
2023/01/02 12:06:40;;;;;;;6.73;4.80;;;10.90;99.90;;;;;;5078768;28;20207;-80
2023/01/02 12:09:13;;;;;;;6.40;4.90;;;11.00;99.90;;;;;;5081375;28;20159;-81
2023/01/02 12:12:00;;;;;;;6.40;4.43;;;10.90;99.90;;;;;;5073632;28;20586;-78
2023/01/02 12:14:57;;;;;;;5.97;4.47;;;10.90;99.90;;;;;;5064419;28;20569;-78
2023/01/02 12:17:33;;;;;;;6.77;4.40;;;10.90;99.90;;;;;;5055433;28;20160;-78
2023/01/02 12:20:29;;;;;;;6.30;4.43;;;10.90;99.90;;;;;;5055655;28;20174;-80
2023/01/02 12:23:29;;;;;;;7.03;4.83;;;10.90;99.90;;;;;;5055096;28;20222;-79
2023/01/02 12:26:09;;;;;;;6.77;4.50;;;10.90;99.90;;;;;;5055380;28;20553;-78
2023/01/02 12:28:50;;;;;;;7.70;4.77;;;10.90;99.90;;;;;;5054569;28;20565;-78
2023/01/02 12:31:28;;;;;;;7.73;4.87;;;10.90;99.90;;;;;;5054610;28;20183;-79
2023/01/02 12:33:59;;;;;;;5.43;4.50;;;10.90;99.90;;;;;;5055150;28;20623;-78
2023/01/02 12:36:33;;;;;;;5.80;4.93;;;10.90;99.90;;;;;;5055610;28;20175;-78
2023/01/02 12:38:58;;;;;;;7.20;4.90;;;10.90;99.90;;;;;;5055600;28;20159;-78
2023/01/02 12:41:49;;;;;;;5.83;4.60;;;10.90;99.90;;;;;;5067204;28;20164;-79
2023/01/02 12:44:30;;;;;;;7.03;5.30;;;10.80;99.90;;;;;;5072975;28;20183;-79
2023/01/02 12:47:26;;;;;;;7.00;5.00;;;10.80;99.90;;;;;;5055139;28;20597;-79
2023/01/02 12:50:30;;;;;;;6.93;5.17;;;10.80;99.90;;;;;;5055180;28;20727;-78
2023/01/02 12:53:04;;;;;;;8.00;4.60;;;10.80;99.90;;;;;;5055432;28;20195;-78
2023/01/02 12:55:38;;;;;;;7.37;5.10;;;10.80;99.90;;;;;;5053985;28;20182;-76
2023/01/02 12:58:22;;;;;;;8.20;4.30;;;10.80;99.90;;;;;;5054172;28;20608;-77
2023/01/02 13:00:56;;;;;;;6.47;4.70;;;10.80;99.90;;;;;;5052634;28;20178;-77
2023/01/02 13:03:52;;;;;;;6.73;4.57;;;10.80;99.90;;;;;;5053836;28;20237;-77
2023/01/02 13:06:27;;;;;;;6.13;4.07;;;10.80;99.90;;;;;;5054182;28;20152;-79
2023/01/02 13:09:05;;;;;;;6.73;4.63;;;10.80;99.90;;;;;;5055885;28;20167;-79
2023/01/02 13:11:39;;;;;;;8.70;5.00;;;10.80;99.90;;;;;;5055227;28;20196;-78